createdAt,value
2023-04-18T00:02:33.586Z,4.83
2023-04-18T00:05:30.718Z,4.91
2023-04-18T00:08:28.413Z,4.92
2023-04-18T00:11:25.297Z,4.92
2023-04-18T00:14:23.126Z,4.95
2023-04-18T00:17:21.126Z,4.89
2023-04-18T00:20:17.990Z,4.93
2023-04-18T00:23:14.930Z,4.89
2023-04-18T00:26:12.085Z,4.88
2023-04-18T00:29:08.920Z,4.90
2023-04-18T00:32:06.141Z,4.98
2023-04-18T00:35:04.076Z,4.89
2023-04-18T00:38:00.924Z,4.82
2023-04-18T00:40:57.772Z,4.74
2023-04-18T00:43:55.255Z,4.78
2023-04-18T00:46:52.086Z,4.75
2023-04-18T00:49:49.275Z,4.93
2023-04-18T00:52:46.970Z,4.77
2023-04-18T00:55:44.110Z,4.75
2023-04-18T00:58:41.180Z,4.67
2023-04-18T01:01:40.143Z,4.65
2023-04-18T01:04:37.374Z,4.67
2023-04-18T01:07:38.032Z,4.69
2023-04-18T01:10:36.921Z,4.63
2023-04-18T01:13:33.766Z,4.70
2023-04-18T01:16:34.814Z,4.70
2023-04-18T01:19:31.753Z,4.67
2023-04-18T01:22:30.870Z,4.88
2023-04-18T01:25:27.692Z,4.74
2023-04-18T01:28:27.546Z,4.74
2023-04-18T01:31:24.459Z,4.72
2023-04-18T01:34:21.366Z,4.73
2023-04-18T01:37:18.165Z,4.56
2023-04-18T01:40:15.165Z,4.65
2023-04-18T01:43:13.033Z,4.60
2023-04-18T01:46:09.911Z,4.56
2023-04-18T01:49:08.231Z,4.72
2023-04-18T01:52:05.048Z,4.68
2023-04-18T01:55:02.305Z,4.55
2023-04-18T01:57:59.133Z,4.57
2023-04-18T02:00:58.852Z,4.65
2023-04-18T02:03:56.033Z,4.45
2023-04-18T02:06:53.168Z,4.52
2023-04-18T02:09:49.986Z,4.53
2023-04-18T02:12:46.974Z,4.45
2023-04-18T02:15:46.598Z,4.48
2023-04-18T02:18:43.788Z,4.61
2023-04-18T02:21:41.863Z,4.52
2023-04-18T02:24:38.677Z,4.49
2023-04-18T02:27:35.582Z,4.69
2023-04-18T02:30:32.490Z,4.51
2023-04-18T02:33:29.300Z,4.44
2023-04-18T02:36:28.041Z,4.53
2023-04-18T02:39:24.883Z,4.48
2023-04-18T02:42:21.723Z,4.60
2023-04-18T02:45:18.667Z,4.36
2023-04-18T02:48:15.683Z,4.42
2023-04-18T02:51:12.583Z,4.41
2023-04-18T02:54:09.402Z,4.34
2023-04-18T02:57:06.221Z,4.32
2023-04-18T03:00:03.433Z,4.36
2023-04-18T03:03:00.574Z,4.27
2023-04-18T03:05:57.464Z,4.28
2023-04-18T03:08:55.839Z,4.22
2023-04-18T03:11:52.728Z,4.19
2023-04-18T03:14:49.562Z,4.19
2023-04-18T03:17:46.409Z,4.33
2023-04-18T03:20:43.282Z,4.33
2023-04-18T03:23:40.349Z,4.35
2023-04-18T03:26:37.173Z,4.48
2023-04-18T03:29:34.174Z,4.43
2023-04-18T03:32:33.995Z,4.46
2023-04-18T03:35:31.271Z,4.41
2023-04-18T03:38:28.268Z,4.47
2023-04-18T03:41:25.235Z,4.45
2023-04-18T03:44:22.060Z,4.49
2023-04-18T03:47:18.901Z,4.56
2023-04-18T03:50:16.498Z,4.48
2023-04-18T03:53:14.389Z,4.50
2023-04-18T03:56:11.296Z,4.37
2023-04-18T03:59:08.283Z,4.41
2023-04-18T04:02:05.174Z,4.39
2023-04-18T04:05:02.663Z,4.42
2023-04-18T04:07:59.644Z,4.35
2023-04-18T04:10:56.461Z,4.53
2023-04-18T04:13:53.388Z,4.52
2023-04-18T04:16:51.639Z,4.53
2023-04-18T04:19:50.515Z,4.47
2023-04-18T04:22:47.383Z,4.46
2023-04-18T04:25:46.324Z,4.45
2023-04-18T04:28:44.805Z,4.52
2023-04-18T04:31:41.681Z,4.40
2023-04-18T04:34:41.305Z,4.59
2023-04-18T04:37:38.668Z,4.54
2023-04-18T04:40:35.509Z,4.48
2023-04-18T04:43:32.850Z,4.50
2023-04-18T04:46:30.553Z,4.72
2023-04-18T04:49:27.349Z,4.62
2023-04-18T04:52:24.220Z,4.66
2023-04-18T04:55:21.326Z,4.77
2023-04-18T04:58:18.692Z,4.57
2023-04-18T05:01:16.794Z,4.63
2023-04-18T05:04:14.016Z,4.68
2023-04-18T05:07:11.371Z,4.67
2023-04-18T05:10:08.604Z,4.89
2023-04-18T05:13:05.499Z,4.92
2023-04-18T05:16:02.818Z,4.75
2023-04-18T05:18:59.673Z,4.79
2023-04-18T05:21:56.641Z,4.73
2023-04-18T05:24:53.451Z,4.75
2023-04-18T05:27:51.037Z,4.81
2023-04-18T05:30:47.934Z,4.94
2023-04-18T05:33:44.772Z,4.94
2023-04-18T05:36:41.605Z,5.00
2023-04-18T05:39:38.409Z,5.04
2023-04-18T05:42:35.232Z,5.14
2023-04-18T05:45:32.083Z,5.04
2023-04-18T05:48:28.964Z,5.19
2023-04-18T05:51:26.712Z,5.19
2023-04-18T05:54:25.171Z,5.34
2023-04-18T05:57:21.997Z,5.35
2023-04-18T06:00:20.077Z,5.33
2023-04-18T06:03:17.174Z,5.27
2023-04-18T06:06:14.481Z,5.27
2023-04-18T06:09:11.496Z,5.36
2023-04-18T06:12:08.324Z,5.53
2023-04-18T06:15:05.910Z,5.35
2023-04-18T06:18:02.856Z,5.34
2023-04-18T06:20:59.893Z,5.53
2023-04-18T06:23:56.751Z,5.32
2023-04-18T06:26:55.187Z,5.58
2023-04-18T06:29:51.998Z,5.56
2023-04-18T06:32:48.983Z,5.58
2023-04-18T06:35:46.252Z,5.78
2023-04-18T06:38:43.110Z,5.59
2023-04-18T06:41:39.919Z,5.76
2023-04-18T06:44:36.717Z,5.79
2023-04-18T06:47:33.680Z,5.69
2023-04-18T06:50:30.596Z,5.88
2023-04-18T06:53:27.429Z,5.72
2023-04-18T06:56:24.372Z,5.83
2023-04-18T06:59:21.582Z,5.79
2023-04-18T07:02:18.541Z,5.88
2023-04-18T07:05:15.527Z,5.91
2023-04-18T07:08:12.376Z,5.97
2023-04-18T07:11:09.233Z,5.93
2023-04-18T07:14:06.069Z,6.01
2023-04-18T07:17:03.132Z,6.08
2023-04-18T07:19:59.977Z,6.19
2023-04-18T07:22:56.784Z,6.24
2023-04-18T07:25:53.682Z,6.28
2023-04-18T07:28:50.551Z,6.26
2023-04-18T07:31:47.793Z,6.17
2023-04-18T07:34:44.989Z,6.27
2023-04-18T07:37:41.925Z,6.11
2023-04-18T07:40:38.823Z,6.30
2023-04-18T07:43:35.943Z,6.30
2023-04-18T07:46:33.988Z,6.26
2023-04-18T07:49:30.874Z,6.33
2023-04-18T07:52:27.728Z,6.37
2023-04-18T07:55:24.570Z,6.26
2023-04-18T07:58:21.681Z,6.33
2023-04-18T08:01:20.933Z,6.47
2023-04-18T08:04:17.932Z,6.52
2023-04-18T08:07:14.873Z,6.67
2023-04-18T08:10:11.800Z,6.71
2023-04-18T08:13:08.794Z,6.70
2023-04-18T08:16:06.071Z,6.78
2023-04-18T08:19:03.171Z,6.90
2023-04-18T08:22:10.626Z,6.95
2023-04-18T08:25:08.019Z,6.79
2023-04-18T08:28:05.170Z,6.77
2023-04-18T08:31:02.129Z,6.87
2023-04-18T08:33:58.934Z,6.71
2023-04-18T08:36:56.612Z,6.93
2023-04-18T08:39:53.645Z,6.47
2023-04-18T08:42:52.860Z,6.64
2023-04-18T08:45:49.968Z,6.58
2023-04-18T08:48:51.271Z,6.64
2023-04-18T08:51:53.977Z,6.84
2023-04-18T08:54:51.913Z,6.93
2023-04-18T08:57:50.371Z,6.88
2023-04-18T09:00:52.053Z,7.04
2023-04-18T09:03:48.904Z,6.82
2023-04-18T09:06:53.138Z,6.82
2023-04-18T09:09:54.829Z,6.71
2023-04-18T09:12:52.112Z,6.71
2023-04-18T09:15:56.146Z,6.75
2023-04-18T09:19:17.969Z,6.55
2023-04-18T09:22:17.035Z,6.58
2023-04-18T09:25:44.480Z,6.82
2023-04-18T09:28:41.739Z,6.83
2023-04-18T09:31:54.878Z,6.82
2023-04-18T09:34:57.940Z,6.97
2023-04-18T09:37:55.103Z,7.23
2023-04-18T09:41:11.864Z,7.24
2023-04-18T09:44:15.089Z,7.22
2023-04-18T09:47:12.451Z,7.18
2023-04-18T09:50:10.643Z,7.22
2023-04-18T09:53:08.667Z,7.22
2023-04-18T09:56:09.662Z,6.92
2023-04-18T09:59:12.141Z,7.16
2023-04-18T10:02:22.100Z,7.00
2023-04-18T10:05:23.227Z,7.02
2023-04-18T10:08:20.707Z,7.07
2023-04-18T10:11:19.193Z,7.30
2023-04-18T10:14:18.162Z,7.26
2023-04-18T10:17:16.046Z,7.33
2023-04-18T10:20:20.293Z,7.25
2023-04-18T10:23:32.371Z,7.31
2023-04-18T10:26:50.347Z,7.38
2023-04-18T10:29:54.058Z,7.06
2023-04-18T10:32:55.540Z,7.10
2023-04-18T10:36:12.300Z,7.09
2023-04-18T10:39:22.388Z,6.91
2023-04-18T10:42:19.327Z,6.83
2023-04-18T10:45:22.784Z,6.94
2023-04-18T10:48:29.918Z,7.13
2023-04-18T10:51:26.835Z,7.04
2023-04-18T10:54:48.882Z,7.31
2023-04-18T10:57:50.471Z,7.06
2023-04-18T11:00:51.470Z,7.09
2023-04-18T11:03:48.470Z,7.19
2023-04-18T11:06:50.218Z,7.23
2023-04-18T11:09:56.937Z,7.12
2023-04-18T11:12:55.311Z,7.60
2023-04-18T11:15:52.281Z,7.47
2023-04-18T11:18:49.247Z,7.18
2023-04-18T11:21:46.169Z,7.60
2023-04-18T11:24:43.848Z,7.26
2023-04-18T11:27:45.859Z,7.11
2023-04-18T11:30:43.063Z,7.40
2023-04-18T11:33:39.884Z,7.55
2023-04-18T11:36:38.523Z,7.69
2023-04-18T11:39:41.425Z,7.71
2023-04-18T11:42:39.882Z,8.30
2023-04-18T11:45:36.819Z,8.32
2023-04-18T11:48:42.121Z,8.22
2023-04-18T11:51:39.000Z,8.46
2023-04-18T11:54:43.625Z,8.42
2023-04-18T11:57:40.861Z,8.31
2023-04-18T12:00:44.109Z,8.43
2023-04-18T12:03:41.601Z,8.28
2023-04-18T12:06:53.430Z,7.95
2023-04-18T12:09:52.729Z,8.05
2023-04-18T12:12:54.919Z,8.04
2023-04-18T12:15:52.120Z,7.86
2023-04-18T12:18:48.944Z,7.89
2023-04-18T12:22:00.778Z,7.92
2023-04-18T12:25:23.528Z,7.99
2023-04-18T12:28:25.788Z,7.93
2023-04-18T12:31:22.754Z,7.99
2023-04-18T12:34:19.744Z,8.37
2023-04-18T12:37:16.587Z,8.26
2023-04-18T12:40:14.210Z,8.54
2023-04-18T12:43:11.208Z,8.37
2023-04-18T12:46:08.077Z,8.40
2023-04-18T12:49:04.924Z,8.73
2023-04-18T12:52:01.849Z,8.73
2023-04-18T12:54:58.779Z,8.51
2023-04-18T12:57:56.474Z,8.49
2023-04-18T13:00:53.330Z,8.46
2023-04-18T13:03:59.844Z,8.14
2023-04-18T13:07:06.148Z,8.05
2023-04-18T13:10:03.004Z,8.12
2023-04-18T13:12:59.923Z,8.26
2023-04-18T13:15:56.741Z,8.02
2023-04-18T13:18:53.660Z,8.04
2023-04-18T13:21:50.742Z,8.09
2023-04-18T13:24:48.162Z,8.22
2023-04-18T13:27:45.891Z,7.90
2023-04-18T13:30:42.718Z,7.78
2023-04-18T13:33:40.391Z,7.83
2023-04-18T13:36:37.224Z,8.01
2023-04-18T13:39:34.377Z,8.12
2023-04-18T13:42:32.046Z,8.08
2023-04-18T13:45:28.914Z,8.19
2023-04-18T13:48:25.778Z,8.28
2023-04-18T13:51:22.590Z,8.22
2023-04-18T13:54:20.157Z,8.30
2023-04-18T13:57:17.016Z,8.09
2023-04-18T14:00:15.094Z,7.88
2023-04-18T14:03:12.604Z,7.99
2023-04-18T14:06:09.533Z,7.86
2023-04-18T14:09:09.340Z,7.91
2023-04-18T14:12:06.911Z,8.23
2023-04-18T14:15:04.330Z,7.98
2023-04-18T14:18:01.374Z,8.00
2023-04-18T14:20:58.298Z,8.19
2023-04-18T14:23:55.456Z,8.01
2023-04-18T14:26:52.294Z,7.88
2023-04-18T14:29:49.386Z,7.93
2023-04-18T14:32:46.243Z,8.01
2023-04-18T14:35:43.902Z,7.94
2023-04-18T14:38:41.221Z,7.96
2023-04-18T14:41:38.167Z,7.88
2023-04-18T14:44:35.038Z,7.98
2023-04-18T14:47:34.569Z,7.84
2023-04-18T14:50:31.742Z,7.75
2023-04-18T14:53:28.645Z,7.82
2023-04-18T14:56:25.521Z,7.73
2023-04-18T14:59:22.539Z,7.88
2023-04-18T15:02:19.455Z,7.82
2023-04-18T15:05:17.783Z,7.82
2023-04-18T15:08:16.048Z,8.11
2023-04-18T15:11:13.617Z,7.81
2023-04-18T15:14:10.687Z,7.77
2023-04-18T15:17:07.549Z,7.94
2023-04-18T15:20:07.170Z,7.69
2023-04-18T15:23:04.176Z,7.68
2023-04-18T15:26:01.077Z,7.85
2023-04-18T15:28:57.888Z,7.77
2023-04-18T15:31:54.976Z,7.75
2023-04-18T15:34:51.875Z,7.90
2023-04-18T15:37:49.241Z,7.72
2023-04-18T15:40:46.229Z,7.82
2023-04-18T15:43:43.286Z,7.70
2023-04-18T15:46:40.232Z,7.93
2023-04-18T15:49:37.161Z,7.72
2023-04-18T15:52:34.095Z,7.73
2023-04-18T15:55:30.902Z,7.77
2023-04-18T15:58:30.205Z,7.76
2023-04-18T16:01:27.400Z,7.68
2023-04-18T16:04:24.375Z,7.63
2023-04-18T16:07:21.314Z,7.60
2023-04-18T16:10:18.202Z,7.66
2023-04-18T16:13:15.298Z,7.69
2023-04-18T16:16:12.344Z,7.52
2023-04-18T16:19:09.515Z,7.50
2023-04-18T16:22:07.346Z,7.49
2023-04-18T16:25:04.991Z,7.41
2023-04-18T16:28:01.947Z,7.46
2023-04-18T16:30:58.814Z,7.37
2023-04-18T16:33:56.010Z,7.34
2023-04-18T16:36:54.524Z,7.40
2023-04-18T16:39:52.356Z,7.63
2023-04-18T16:42:49.195Z,7.22
2023-04-18T16:45:45.999Z,7.29
2023-04-18T16:48:44.584Z,7.20
2023-04-18T16:51:41.473Z,7.29
2023-04-18T16:54:38.305Z,7.21
2023-04-18T16:57:35.114Z,7.27
2023-04-18T17:00:31.973Z,7.32
2023-04-18T17:03:28.989Z,7.35
2023-04-18T17:06:27.204Z,7.43
2023-04-18T17:09:24.284Z,7.24
2023-04-18T17:12:21.627Z,7.10
2023-04-18T17:15:19.350Z,7.28
2023-04-18T17:18:16.194Z,7.09
2023-04-18T17:21:15.858Z,7.15
2023-04-18T17:24:12.697Z,7.15
2023-04-18T17:27:09.639Z,7.12
2023-04-18T17:30:07.486Z,6.99
2023-04-18T17:33:04.378Z,7.01
2023-04-18T17:36:01.284Z,6.90
2023-04-18T17:39:06.361Z,6.92
2023-04-18T17:42:03.413Z,6.93
2023-04-18T17:45:03.485Z,6.87
2023-04-18T17:48:02.959Z,6.96
2023-04-18T17:50:59.902Z,6.77
2023-04-18T17:53:56.847Z,6.88
2023-04-18T17:56:53.663Z,6.92
2023-04-18T17:59:50.599Z,6.87
2023-04-18T18:02:47.771Z,6.92
2023-04-18T18:05:49.251Z,6.84
2023-04-18T18:08:46.110Z,6.87
2023-04-18T18:11:42.952Z,6.76
2023-04-18T18:14:40.551Z,6.73
2023-04-18T18:17:37.443Z,6.73
2023-04-18T18:20:34.378Z,6.79
2023-04-18T18:23:31.347Z,6.87
2023-04-18T18:26:28.173Z,6.83
2023-04-18T18:29:25.203Z,6.75
2023-04-18T18:32:22.103Z,6.74
2023-04-18T18:35:19.039Z,6.65
2023-04-18T18:38:15.872Z,6.64
2023-04-18T18:41:12.700Z,6.77
2023-04-18T18:44:09.572Z,6.71
2023-04-18T18:47:06.449Z,6.62
2023-04-18T18:50:03.865Z,6.51
2023-04-18T18:53:01.894Z,6.68
2023-04-18T18:55:58.742Z,6.62
2023-04-18T18:58:55.623Z,6.66
2023-04-18T19:01:52.499Z,6.63
2023-04-18T19:04:49.553Z,6.63
2023-04-18T19:07:46.626Z,6.74
2023-04-18T19:10:43.469Z,6.78
2023-04-18T19:13:40.397Z,6.60
2023-04-18T19:16:37.408Z,6.55
2023-04-18T19:19:34.455Z,6.60
2023-04-18T19:22:31.267Z,6.65
2023-04-18T19:25:28.174Z,6.61
2023-04-18T19:28:25.810Z,6.64
2023-04-18T19:31:22.657Z,6.63
2023-04-18T19:34:19.573Z,6.49
2023-04-18T19:37:16.384Z,6.61
2023-04-18T19:40:14.159Z,6.54
2023-04-18T19:43:11.080Z,6.58
2023-04-18T19:46:08.256Z,6.64
2023-04-18T19:49:05.110Z,6.62
2023-04-18T19:52:02.025Z,6.62
2023-04-18T19:54:58.848Z,6.52
2023-04-18T19:57:56.724Z,6.54
2023-04-18T20:00:53.564Z,6.55
2023-04-18T20:03:50.560Z,6.59
2023-04-18T20:06:47.485Z,6.54
2023-04-18T20:09:44.304Z,6.56
2023-04-18T20:12:41.133Z,6.58
2023-04-18T20:15:37.958Z,6.59
2023-04-18T20:18:37.779Z,6.69
2023-04-18T20:21:34.589Z,6.67
2023-04-18T20:24:40.070Z,6.68
2023-04-18T20:27:36.907Z,6.77
2023-04-18T20:30:36.117Z,6.75
2023-04-18T20:33:33.269Z,6.75
2023-04-18T20:36:30.345Z,6.65
2023-04-18T20:39:28.034Z,6.54
2023-04-18T20:42:24.872Z,6.54
2023-04-18T20:45:22.879Z,6.53
2023-04-18T20:48:21.211Z,6.60
2023-04-18T20:51:18.098Z,6.54
2023-04-18T20:54:15.242Z,6.53
2023-04-18T20:57:12.354Z,6.70
2023-04-18T21:00:10.473Z,6.58
2023-04-18T21:03:07.853Z,6.59
2023-04-18T21:06:04.922Z,6.60
2023-04-18T21:09:01.727Z,6.67
2023-04-18T21:11:58.645Z,6.66
2023-04-18T21:14:55.489Z,6.63
2023-04-18T21:17:52.541Z,6.71
2023-04-18T21:20:50.088Z,6.69
2023-04-18T21:23:46.908Z,6.67
2023-04-18T21:26:43.726Z,6.61
2023-04-18T21:29:41.533Z,6.62
2023-04-18T21:32:38.382Z,6.67
2023-04-18T21:35:35.269Z,6.68
2023-04-18T21:38:32.068Z,6.75
2023-04-18T21:41:29.848Z,6.74
2023-04-18T21:44:26.661Z,6.67
2023-04-18T21:47:23.550Z,6.68
2023-04-18T21:50:20.581Z,6.67
2023-04-18T21:53:17.372Z,6.77
2023-04-18T21:56:14.282Z,6.69
2023-04-18T21:59:11.138Z,6.72
2023-04-18T22:02:08.557Z,6.72
2023-04-18T22:05:05.893Z,6.74
2023-04-18T22:08:03.233Z,6.90
2023-04-18T22:11:00.334Z,6.85
2023-04-18T22:13:58.125Z,6.84
2023-04-18T22:16:55.071Z,6.73
2023-04-18T22:19:53.615Z,6.74
2023-04-18T22:22:50.545Z,6.72
2023-04-18T22:25:47.746Z,6.82
2023-04-18T22:28:45.105Z,6.87
2023-04-18T22:31:43.322Z,6.81
2023-04-18T22:34:40.567Z,6.80
2023-04-18T22:37:37.476Z,6.82
2023-04-18T22:40:34.322Z,6.83
2023-04-18T22:43:31.260Z,6.89
2023-04-18T22:46:28.220Z,6.83
2023-04-18T22:49:25.120Z,6.91
2023-04-18T22:52:24.753Z,6.88
2023-04-18T22:55:21.717Z,6.85
2023-04-18T22:58:18.541Z,6.82
2023-04-18T23:01:15.633Z,6.86
2023-04-18T23:04:12.597Z,6.88
2023-04-18T23:07:09.520Z,6.88
2023-04-18T23:10:07.426Z,7.00
2023-04-18T23:13:04.273Z,6.89
2023-04-18T23:16:01.195Z,6.90
2023-04-18T23:18:58.035Z,6.84
2023-04-18T23:21:54.850Z,6.92
2023-04-18T23:24:51.832Z,7.02
2023-04-18T23:27:48.690Z,7.09
2023-04-18T23:30:45.566Z,7.04
2023-04-18T23:33:42.394Z,7.00
2023-04-18T23:36:40.408Z,7.03
2023-04-18T23:39:37.272Z,7.04
2023-04-18T23:42:34.773Z,7.05
2023-04-18T23:45:31.605Z,7.15
2023-04-18T23:48:28.514Z,7.00
2023-04-18T23:51:26.154Z,6.95
2023-04-18T23:54:22.986Z,7.02
2023-04-18T23:57:19.807Z,6.94
